sensor_id;sensor_type;location;lat;lon;timestamp;P1;durP1;ratioP1;P2;durP2;ratioP2
45392;SDS011;31129;44.810;10.334;2023-12-04T00:00:17;28.02;;;16.25;;
45392;SDS011;31129;44.810;10.334;2023-12-04T00:02:43;24.27;;;14.95;;
45392;SDS011;31129;44.810;10.334;2023-12-04T00:05:08;29.73;;;16.60;;
45392;SDS011;31129;44.810;10.334;2023-12-04T00:07:33;26.85;;;15.45;;
45392;SDS011;31129;44.810;10.334;2023-12-04T00:09:59;34.42;;;16.95;;
45392;SDS011;31129;44.810;10.334;2023-12-04T00:12:24;31.80;;;16.73;;
45392;SDS011;31129;44.810;10.334;2023-12-04T00:14:50;32.08;;;17.58;;
45392;SDS011;31129;44.810;10.334;2023-12-04T00:17:16;34.38;;;17.70;;
45392;SDS011;31129;44.810;10.334;2023-12-04T00:19:42;26.80;;;16.20;;
45392;SDS011;31129;44.810;10.334;2023-12-04T00:22:07;34.95;;;18.40;;
45392;SDS011;31129;44.810;10.334;2023-12-04T00:24:36;31.77;;;16.25;;
45392;SDS011;31129;44.810;10.334;2023-12-04T00:31:55;27.98;;;16.30;;
45392;SDS011;31129;44.810;10.334;2023-12-04T00:34:22;28.95;;;16.85;;
45392;SDS011;31129;44.810;10.334;2023-12-04T00:36:47;26.15;;;16.15;;
45392;SDS011;31129;44.810;10.334;2023-12-04T00:39:13;26.52;;;15.10;;
45392;SDS011;31129;44.810;10.334;2023-12-04T00:41:38;25.48;;;15.57;;
45392;SDS011;31129;44.810;10.334;2023-12-04T00:44:04;24.77;;;16.35;;
45392;SDS011;31129;44.810;10.334;2023-12-04T00:46:29;23.33;;;15.75;;
45392;SDS011;31129;44.810;10.334;2023-12-04T00:48:55;27.40;;;15.85;;
45392;SDS011;31129;44.810;10.334;2023-12-04T00:51:20;28.58;;;16.48;;
45392;SDS011;31129;44.810;10.334;2023-12-04T00:53:45;25.25;;;15.45;;
45392;SDS011;31129;44.810;10.334;2023-12-04T00:56:11;30.70;;;16.95;;
45392;SDS011;31129;44.810;10.334;2023-12-04T00:58:36;26.42;;;15.77;;
45392;SDS011;31129;44.810;10.334;2023-12-04T01:01:02;26.33;;;15.95;;
45392;SDS011;31129;44.810;10.334;2023-12-04T01:03:27;25.55;;;16.63;;
45392;SDS011;31129;44.810;10.334;2023-12-04T01:05:53;31.35;;;16.85;;
45392;SDS011;31129;44.810;10.334;2023-12-04T01:08:18;31.90;;;17.30;;
45392;SDS011;31129;44.810;10.334;2023-12-04T01:10:43;27.33;;;17.30;;
45392;SDS011;31129;44.810;10.334;2023-12-04T01:13:09;32.65;;;17.65;;
45392;SDS011;31129;44.810;10.334;2023-12-04T01:15:34;32.55;;;18.63;;
45392;SDS011;31129;44.810;10.334;2023-12-04T01:18:01;30.35;;;17.63;;
45392;SDS011;31129;44.810;10.334;2023-12-04T01:20:27;30.20;;;17.60;;
45392;SDS011;31129;44.810;10.334;2023-12-04T01:22:52;30.98;;;17.80;;
45392;SDS011;31129;44.810;10.334;2023-12-04T01:25:18;33.08;;;18.52;;
45392;SDS011;31129;44.810;10.334;2023-12-04T01:27:44;34.80;;;17.75;;
45392;SDS011;31129;44.810;10.334;2023-12-04T01:30:09;26.13;;;17.73;;
45392;SDS011;31129;44.810;10.334;2023-12-04T01:32:35;28.15;;;16.83;;
45392;SDS011;31129;44.810;10.334;2023-12-04T01:35:01;29.63;;;17.58;;
45392;SDS011;31129;44.810;10.334;2023-12-04T01:37:27;32.53;;;17.08;;
45392;SDS011;31129;44.810;10.334;2023-12-04T01:39:53;30.02;;;17.95;;
45392;SDS011;31129;44.810;10.334;2023-12-04T01:42:18;28.17;;;16.60;;
45392;SDS011;31129;44.810;10.334;2023-12-04T01:44:43;30.00;;;17.42;;
45392;SDS011;31129;44.810;10.334;2023-12-04T01:47:09;27.38;;;16.25;;
45392;SDS011;31129;44.810;10.334;2023-12-04T01:49:36;26.42;;;17.08;;
45392;SDS011;31129;44.810;10.334;2023-12-04T01:52:01;36.95;;;18.25;;
45392;SDS011;31129;44.810;10.334;2023-12-04T01:54:27;26.05;;;16.30;;
45392;SDS011;31129;44.810;10.334;2023-12-04T01:56:54;27.42;;;16.08;;
45392;SDS011;31129;44.810;10.334;2023-12-04T01:59:20;24.23;;;15.75;;
45392;SDS011;31129;44.810;10.334;2023-12-04T02:01:45;25.67;;;15.45;;
45392;SDS011;31129;44.810;10.334;2023-12-04T02:04:11;27.63;;;15.55;;
45392;SDS011;31129;44.810;10.334;2023-12-04T02:06:37;26.27;;;16.17;;
45392;SDS011;31129;44.810;10.334;2023-12-04T02:09:02;25.83;;;15.93;;
45392;SDS011;31129;44.810;10.334;2023-12-04T02:11:28;25.20;;;15.38;;
45392;SDS011;31129;44.810;10.334;2023-12-04T02:13:53;26.20;;;15.88;;
45392;SDS011;31129;44.810;10.334;2023-12-04T02:16:19;23.33;;;14.48;;
45392;SDS011;31129;44.810;10.334;2023-12-04T02:18:46;26.33;;;16.00;;
45392;SDS011;31129;44.810;10.334;2023-12-04T02:21:12;24.50;;;15.65;;
45392;SDS011;31129;44.810;10.334;2023-12-04T02:23:38;25.05;;;15.88;;
45392;SDS011;31129;44.810;10.334;2023-12-04T02:26:10;26.13;;;16.40;;
45392;SDS011;31129;44.810;10.334;2023-12-04T02:28:40;25.23;;;15.82;;
45392;SDS011;31129;44.810;10.334;2023-12-04T02:31:13;23.48;;;15.35;;
45392;SDS011;31129;44.810;10.334;2023-12-04T02:33:39;23.08;;;15.10;;
45392;SDS011;31129;44.810;10.334;2023-12-04T02:36:05;27.00;;;16.35;;
45392;SDS011;31129;44.810;10.334;2023-12-04T02:38:32;27.15;;;15.77;;
45392;SDS011;31129;44.810;10.334;2023-12-04T02:40:58;23.90;;;14.98;;
45392;SDS011;31129;44.810;10.334;2023-12-04T02:45:52;25.85;;;14.57;;
45392;SDS011;31129;44.810;10.334;2023-12-04T02:48:20;26.35;;;16.45;;
45392;SDS011;31129;44.810;10.334;2023-12-04T02:50:45;24.67;;;15.00;;
45392;SDS011;31129;44.810;10.334;2023-12-04T02:53:11;26.60;;;15.10;;
45392;SDS011;31129;44.810;10.334;2023-12-04T02:55:37;24.55;;;14.55;;
45392;SDS011;31129;44.810;10.334;2023-12-04T02:58:02;26.77;;;15.27;;
45392;SDS011;31129;44.810;10.334;2023-12-04T03:00:27;22.50;;;15.38;;
45392;SDS011;31129;44.810;10.334;2023-12-04T03:02:53;22.27;;;13.82;;
45392;SDS011;31129;44.810;10.334;2023-12-04T03:05:19;23.88;;;15.02;;
45392;SDS011;31129;44.810;10.334;2023-12-04T03:07:44;22.20;;;14.40;;
45392;SDS011;31129;44.810;10.334;2023-12-04T03:10:10;22.73;;;14.68;;
45392;SDS011;31129;44.810;10.334;2023-12-04T03:12:36;25.65;;;15.40;;
45392;SDS011;31129;44.810;10.334;2023-12-04T03:15:02;23.92;;;14.80;;
45392;SDS011;31129;44.810;10.334;2023-12-04T03:17:28;25.98;;;16.52;;
45392;SDS011;31129;44.810;10.334;2023-12-04T03:19:53;26.88;;;16.75;;
45392;SDS011;31129;44.810;10.334;2023-12-04T03:22:19;26.90;;;15.27;;
45392;SDS011;31129;44.810;10.334;2023-12-04T03:24:44;24.23;;;15.55;;
45392;SDS011;31129;44.810;10.334;2023-12-04T03:27:10;28.55;;;16.00;;
45392;SDS011;31129;44.810;10.334;2023-12-04T03:29:36;30.42;;;15.98;;
45392;SDS011;31129;44.810;10.334;2023-12-04T03:32:01;23.02;;;15.63;;
45392;SDS011;31129;44.810;10.334;2023-12-04T03:34:26;25.52;;;14.80;;
45392;SDS011;31129;44.810;10.334;2023-12-04T03:36:52;29.38;;;15.88;;
45392;SDS011;31129;44.810;10.334;2023-12-04T03:39:17;25.23;;;14.75;;
45392;SDS011;31129;44.810;10.334;2023-12-04T03:41:43;28.50;;;14.85;;
45392;SDS011;31129;44.810;10.334;2023-12-04T03:44:08;27.58;;;16.50;;
45392;SDS011;31129;44.810;10.334;2023-12-04T03:46:34;24.20;;;15.00;;
45392;SDS011;31129;44.810;10.334;2023-12-04T03:48:59;24.17;;;15.23;;
45392;SDS011;31129;44.810;10.334;2023-12-04T03:51:24;27.63;;;15.32;;
45392;SDS011;31129;44.810;10.334;2023-12-04T03:53:50;26.00;;;15.73;;
45392;SDS011;31129;44.810;10.334;2023-12-04T03:56:15;27.02;;;15.93;;
45392;SDS011;31129;44.810;10.334;2023-12-04T03:58:41;25.85;;;15.18;;
45392;SDS011;31129;44.810;10.334;2023-12-04T04:01:06;25.67;;;16.38;;
45392;SDS011;31129;44.810;10.334;2023-12-04T04:03:32;23.90;;;15.25;;
45392;SDS011;31129;44.810;10.334;2023-12-04T04:05:57;24.15;;;14.75;;
45392;SDS011;31129;44.810;10.334;2023-12-04T04:08:22;25.02;;;15.98;;
45392;SDS011;31129;44.810;10.334;2023-12-04T04:10:48;25.65;;;15.52;;
45392;SDS011;31129;44.810;10.334;2023-12-04T04:13:13;26.75;;;16.17;;
45392;SDS011;31129;44.810;10.334;2023-12-04T04:15:39;28.25;;;17.25;;
45392;SDS011;31129;44.810;10.334;2023-12-04T04:18:04;20.83;;;14.35;;
45392;SDS011;31129;44.810;10.334;2023-12-04T04:20:29;25.58;;;16.83;;
45392;SDS011;31129;44.810;10.334;2023-12-04T04:22:55;28.75;;;17.33;;
45392;SDS011;31129;44.810;10.334;2023-12-04T04:25:20;26.75;;;16.33;;
45392;SDS011;31129;44.810;10.334;2023-12-04T04:27:48;19.27;;;12.45;;
45392;SDS011;31129;44.810;10.334;2023-12-04T04:30:13;31.00;;;16.23;;
45392;SDS011;31129;44.810;10.334;2023-12-04T04:32:39;25.33;;;15.80;;
45392;SDS011;31129;44.810;10.334;2023-12-04T04:35:04;28.25;;;15.77;;
45392;SDS011;31129;44.810;10.334;2023-12-04T04:37:30;28.63;;;16.58;;
45392;SDS011;31129;44.810;10.334;2023-12-04T04:39:55;26.92;;;16.35;;
45392;SDS011;31129;44.810;10.334;2023-12-04T04:42:22;27.13;;;16.33;;
45392;SDS011;31129;44.810;10.334;2023-12-04T04:47:15;26.95;;;15.32;;
45392;SDS011;31129;44.810;10.334;2023-12-04T04:49:40;27.55;;;15.75;;
45392;SDS011;31129;44.810;10.334;2023-12-04T04:52:07;23.25;;;14.38;;
45392;SDS011;31129;44.810;10.334;2023-12-04T04:54:32;25.45;;;15.90;;
45392;SDS011;31129;44.810;10.334;2023-12-04T04:56:58;27.40;;;15.43;;
45392;SDS011;31129;44.810;10.334;2023-12-04T04:59:23;22.30;;;14.73;;
45392;SDS011;31129;44.810;10.334;2023-12-04T05:01:49;23.15;;;15.20;;
45392;SDS011;31129;44.810;10.334;2023-12-04T05:04:14;24.95;;;16.33;;
45392;SDS011;31129;44.810;10.334;2023-12-04T05:06:40;29.20;;;16.30;;
45392;SDS011;31129;44.810;10.334;2023-12-04T05:09:05;26.13;;;15.30;;
45392;SDS011;31129;44.810;10.334;2023-12-04T05:11:31;25.98;;;15.57;;
45392;SDS011;31129;44.810;10.334;2023-12-04T05:16:47;28.25;;;16.38;;
45392;SDS011;31129;44.810;10.334;2023-12-04T05:19:12;26.15;;;16.58;;
45392;SDS011;31129;44.810;10.334;2023-12-04T05:21:37;26.33;;;16.00;;
45392;SDS011;31129;44.810;10.334;2023-12-04T05:24:03;23.65;;;15.18;;
45392;SDS011;31129;44.810;10.334;2023-12-04T05:26:28;27.40;;;16.75;;
45392;SDS011;31129;44.810;10.334;2023-12-04T05:28:54;27.70;;;16.52;;
45392;SDS011;31129;44.810;10.334;2023-12-04T05:31:19;25.25;;;15.48;;
45392;SDS011;31129;44.810;10.334;2023-12-04T05:33:45;27.05;;;17.10;;
45392;SDS011;31129;44.810;10.334;2023-12-04T05:36:10;28.15;;;17.17;;
45392;SDS011;31129;44.810;10.334;2023-12-04T05:38:36;27.95;;;17.67;;
45392;SDS011;31129;44.810;10.334;2023-12-04T05:41:04;28.55;;;16.77;;
45392;SDS011;31129;44.810;10.334;2023-12-04T05:43:30;25.55;;;16.55;;
45392;SDS011;31129;44.810;10.334;2023-12-04T05:45:55;27.75;;;16.92;;
45392;SDS011;31129;44.810;10.334;2023-12-04T05:48:20;26.98;;;17.50;;
45392;SDS011;31129;44.810;10.334;2023-12-04T05:50:48;23.88;;;16.17;;
45392;SDS011;31129;44.810;10.334;2023-12-04T05:53:14;25.63;;;16.77;;
45392;SDS011;31129;44.810;10.334;2023-12-04T05:55:39;29.83;;;17.95;;
45392;SDS011;31129;44.810;10.334;2023-12-04T05:58:05;25.98;;;17.77;;
45392;SDS011;31129;44.810;10.334;2023-12-04T06:00:30;27.67;;;16.77;;
45392;SDS011;31129;44.810;10.334;2023-12-04T06:02:56;29.23;;;17.38;;
45392;SDS011;31129;44.810;10.334;2023-12-04T06:05:21;28.35;;;17.95;;
45392;SDS011;31129;44.810;10.334;2023-12-04T06:07:50;29.38;;;18.25;;
45392;SDS011;31129;44.810;10.334;2023-12-04T06:10:15;26.95;;;17.25;;
45392;SDS011;31129;44.810;10.334;2023-12-04T06:12:40;26.52;;;16.65;;
45392;SDS011;31129;44.810;10.334;2023-12-04T06:15:06;29.25;;;17.90;;
45392;SDS011;31129;44.810;10.334;2023-12-04T06:17:35;26.25;;;16.25;;
45392;SDS011;31129;44.810;10.334;2023-12-04T06:22:26;26.95;;;17.00;;
45392;SDS011;31129;44.810;10.334;2023-12-04T06:24:52;24.80;;;15.57;;
45392;SDS011;31129;44.810;10.334;2023-12-04T06:27:18;27.23;;;17.52;;
45392;SDS011;31129;44.810;10.334;2023-12-04T06:29:47;29.60;;;17.23;;
45392;SDS011;31129;44.810;10.334;2023-12-04T06:32:14;24.83;;;16.13;;
45392;SDS011;31129;44.810;10.334;2023-12-04T06:34:40;23.90;;;16.00;;
45392;SDS011;31129;44.810;10.334;2023-12-04T06:39:38;29.10;;;16.58;;
45392;SDS011;31129;44.810;10.334;2023-12-04T06:42:05;33.67;;;18.83;;
45392;SDS011;31129;44.810;10.334;2023-12-04T06:44:34;39.35;;;20.20;;
45392;SDS011;31129;44.810;10.334;2023-12-04T06:47:00;40.53;;;20.80;;
45392;SDS011;31129;44.810;10.334;2023-12-04T06:49:30;38.30;;;17.42;;
45392;SDS011;31129;44.810;10.334;2023-12-04T06:51:59;31.52;;;18.20;;
45392;SDS011;31129;44.810;10.334;2023-12-04T06:54:25;32.25;;;16.98;;
45392;SDS011;31129;44.810;10.334;2023-12-04T06:56:50;29.15;;;17.33;;
45392;SDS011;31129;44.810;10.334;2023-12-04T06:59:17;29.35;;;17.83;;
45392;SDS011;31129;44.810;10.334;2023-12-04T07:01:43;34.60;;;17.20;;
45392;SDS011;31129;44.810;10.334;2023-12-04T07:04:08;30.55;;;16.85;;
45392;SDS011;31129;44.810;10.334;2023-12-04T07:06:38;31.80;;;16.77;;
45392;SDS011;31129;44.810;10.334;2023-12-04T07:09:04;26.83;;;17.35;;
45392;SDS011;31129;44.810;10.334;2023-12-04T07:11:32;26.83;;;17.05;;
45392;SDS011;31129;44.810;10.334;2023-12-04T07:13:58;31.58;;;18.38;;
45392;SDS011;31129;44.810;10.334;2023-12-04T07:16:24;28.27;;;17.27;;
45392;SDS011;31129;44.810;10.334;2023-12-04T07:18:49;24.75;;;16.23;;
45392;SDS011;31129;44.810;10.334;2023-12-04T07:21:14;27.02;;;16.00;;
45392;SDS011;31129;44.810;10.334;2023-12-04T07:23:40;29.35;;;16.65;;
45392;SDS011;31129;44.810;10.334;2023-12-04T07:26:05;27.20;;;17.52;;
45392;SDS011;31129;44.810;10.334;2023-12-04T07:30:59;26.10;;;16.65;;
45392;SDS011;31129;44.810;10.334;2023-12-04T07:33:27;26.05;;;16.60;;
45392;SDS011;31129;44.810;10.334;2023-12-04T07:35:52;26.23;;;15.93;;
45392;SDS011;31129;44.810;10.334;2023-12-04T07:38:18;25.05;;;16.23;;
45392;SDS011;31129;44.810;10.334;2023-12-04T07:40:44;29.60;;;16.73;;
45392;SDS011;31129;44.810;10.334;2023-12-04T07:43:10;26.05;;;16.55;;
45392;SDS011;31129;44.810;10.334;2023-12-04T07:45:36;29.15;;;16.35;;
45392;SDS011;31129;44.810;10.334;2023-12-04T07:48:03;31.13;;;16.63;;
45392;SDS011;31129;44.810;10.334;2023-12-04T07:50:29;42.90;;;19.52;;
45392;SDS011;31129;44.810;10.334;2023-12-04T07:52:54;34.05;;;18.45;;
45392;SDS011;31129;44.810;10.334;2023-12-04T07:55:20;41.20;;;19.85;;
45392;SDS011;31129;44.810;10.334;2023-12-04T07:57:45;39.92;;;20.88;;
45392;SDS011;31129;44.810;10.334;2023-12-04T08:00:11;38.08;;;19.55;;
45392;SDS011;31129;44.810;10.334;2023-12-04T08:02:37;34.13;;;19.17;;
45392;SDS011;31129;44.810;10.334;2023-12-04T08:05:02;41.00;;;20.33;;
45392;SDS011;31129;44.810;10.334;2023-12-04T08:07:28;34.95;;;19.17;;
45392;SDS011;31129;44.810;10.334;2023-12-04T08:09:54;33.22;;;19.33;;
45392;SDS011;31129;44.810;10.334;2023-12-04T08:12:19;32.75;;;19.15;;
45392;SDS011;31129;44.810;10.334;2023-12-04T08:14:45;35.67;;;19.58;;
45392;SDS011;31129;44.810;10.334;2023-12-04T08:17:11;36.75;;;18.45;;
45392;SDS011;31129;44.810;10.334;2023-12-04T08:19:37;34.40;;;19.92;;
45392;SDS011;31129;44.810;10.334;2023-12-04T08:22:04;37.75;;;19.27;;
45392;SDS011;31129;44.810;10.334;2023-12-04T08:24:29;34.22;;;18.67;;
45392;SDS011;31129;44.810;10.334;2023-12-04T08:26:58;38.75;;;19.70;;
45392;SDS011;31129;44.810;10.334;2023-12-04T08:31:48;39.15;;;20.30;;
45392;SDS011;31129;44.810;10.334;2023-12-04T08:34:14;39.97;;;19.13;;
45392;SDS011;31129;44.810;10.334;2023-12-04T08:36:40;28.67;;;17.70;;
45392;SDS011;31129;44.810;10.334;2023-12-04T08:39:06;31.23;;;19.52;;
45392;SDS011;31129;44.810;10.334;2023-12-04T08:41:31;31.73;;;18.73;;
45392;SDS011;31129;44.810;10.334;2023-12-04T08:43:59;28.80;;;18.75;;
45392;SDS011;31129;44.810;10.334;2023-12-04T08:46:25;26.50;;;17.30;;
45392;SDS011;31129;44.810;10.334;2023-12-04T08:48:51;27.55;;;16.95;;
45392;SDS011;31129;44.810;10.334;2023-12-04T08:51:17;29.30;;;17.50;;
45392;SDS011;31129;44.810;10.334;2023-12-04T08:53:45;28.70;;;17.42;;
45392;SDS011;31129;44.810;10.334;2023-12-04T08:56:10;28.17;;;17.77;;
45392;SDS011;31129;44.810;10.334;2023-12-04T08:58:36;29.33;;;17.77;;
45392;SDS011;31129;44.810;10.334;2023-12-04T09:01:02;25.63;;;16.55;;
45392;SDS011;31129;44.810;10.334;2023-12-04T09:03:29;29.10;;;16.83;;
45392;SDS011;31129;44.810;10.334;2023-12-04T09:05:54;28.48;;;16.58;;
45392;SDS011;31129;44.810;10.334;2023-12-04T09:08:22;28.13;;;16.33;;
45392;SDS011;31129;44.810;10.334;2023-12-04T09:10:47;25.33;;;16.30;;
45392;SDS011;31129;44.810;10.334;2023-12-04T09:13:14;24.08;;;16.65;;
45392;SDS011;31129;44.810;10.334;2023-12-04T09:15:39;27.95;;;17.58;;
45392;SDS011;31129;44.810;10.334;2023-12-04T09:18:05;24.20;;;15.73;;
45392;SDS011;31129;44.810;10.334;2023-12-04T09:20:30;31.25;;;16.52;;
45392;SDS011;31129;44.810;10.334;2023-12-04T09:22:56;29.90;;;17.27;;
45392;SDS011;31129;44.810;10.334;2023-12-04T09:25:21;25.23;;;16.23;;
45392;SDS011;31129;44.810;10.334;2023-12-04T09:27:49;30.33;;;18.50;;
45392;SDS011;31129;44.810;10.334;2023-12-04T09:30:15;27.05;;;18.27;;
45392;SDS011;31129;44.810;10.334;2023-12-04T09:32:40;24.42;;;15.40;;
45392;SDS011;31129;44.810;10.334;2023-12-04T09:35:06;25.42;;;14.65;;
45392;SDS011;31129;44.810;10.334;2023-12-04T09:37:32;31.13;;;18.10;;
45392;SDS011;31129;44.810;10.334;2023-12-04T09:39:57;24.55;;;16.17;;
45392;SDS011;31129;44.810;10.334;2023-12-04T09:42:23;24.88;;;15.45;;
45392;SDS011;31129;44.810;10.334;2023-12-04T09:44:48;26.02;;;16.23;;
45392;SDS011;31129;44.810;10.334;2023-12-04T09:47:18;26.38;;;15.75;;
45392;SDS011;31129;44.810;10.334;2023-12-04T09:49:46;23.60;;;15.50;;
45392;SDS011;31129;44.810;10.334;2023-12-04T09:52:13;27.40;;;15.65;;
45392;SDS011;31129;44.810;10.334;2023-12-04T09:54:39;25.55;;;15.05;;
45392;SDS011;31129;44.810;10.334;2023-12-04T09:57:05;24.52;;;15.80;;
45392;SDS011;31129;44.810;10.334;2023-12-04T09:59:31;22.55;;;15.13;;
45392;SDS011;31129;44.810;10.334;2023-12-04T10:01:57;26.27;;;17.23;;
45392;SDS011;31129;44.810;10.334;2023-12-04T10:04:23;23.55;;;16.48;;
45392;SDS011;31129;44.810;10.334;2023-12-04T10:06:49;32.55;;;17.52;;
45392;SDS011;31129;44.810;10.334;2023-12-04T10:09:17;35.88;;;18.27;;
45392;SDS011;31129;44.810;10.334;2023-12-04T10:11:44;24.60;;;16.17;;
45392;SDS011;31129;44.810;10.334;2023-12-04T10:14:17;29.00;;;16.85;;
45392;SDS011;31129;44.810;10.334;2023-12-04T10:16:43;24.75;;;16.65;;
45392;SDS011;31129;44.810;10.334;2023-12-04T10:19:22;23.00;;;15.93;;
45392;SDS011;31129;44.810;10.334;2023-12-04T10:21:52;26.63;;;16.33;;
45392;SDS011;31129;44.810;10.334;2023-12-04T10:24:29;28.93;;;17.87;;
45392;SDS011;31129;44.810;10.334;2023-12-04T10:27:00;23.13;;;15.82;;
45392;SDS011;31129;44.810;10.334;2023-12-04T10:29:27;27.48;;;15.60;;
45392;SDS011;31129;44.810;10.334;2023-12-04T10:34:21;26.55;;;14.98;;
45392;SDS011;31129;44.810;10.334;2023-12-04T10:36:51;27.55;;;14.90;;
45392;SDS011;31129;44.810;10.334;2023-12-04T10:39:16;20.48;;;14.45;;
45392;SDS011;31129;44.810;10.334;2023-12-04T10:41:43;25.00;;;14.32;;
45392;SDS011;31129;44.810;10.334;2023-12-04T10:44:09;21.60;;;13.60;;
45392;SDS011;31129;44.810;10.334;2023-12-04T10:46:35;21.85;;;14.27;;
45392;SDS011;31129;44.810;10.334;2023-12-04T10:49:01;20.20;;;13.70;;
45392;SDS011;31129;44.810;10.334;2023-12-04T10:51:29;20.50;;;13.32;;
45392;SDS011;31129;44.810;10.334;2023-12-04T10:53:55;22.20;;;13.82;;
45392;SDS011;31129;44.810;10.334;2023-12-04T10:56:31;24.00;;;14.63;;
45392;SDS011;31129;44.810;10.334;2023-12-04T10:59:01;23.80;;;13.48;;
45392;SDS011;31129;44.810;10.334;2023-12-04T11:01:36;18.67;;;12.93;;
45392;SDS011;31129;44.810;10.334;2023-12-04T11:04:02;20.45;;;13.63;;
45392;SDS011;31129;44.810;10.334;2023-12-04T11:06:32;22.95;;;13.32;;
45392;SDS011;31129;44.810;10.334;2023-12-04T11:09:00;19.30;;;13.63;;
45392;SDS011;31129;44.810;10.334;2023-12-04T11:11:30;18.80;;;12.80;;
45392;SDS011;31129;44.810;10.334;2023-12-04T11:14:00;21.20;;;12.95;;
45392;SDS011;31129;44.810;10.334;2023-12-04T11:19:10;18.40;;;13.02;;
45392;SDS011;31129;44.810;10.334;2023-12-04T11:24:11;16.40;;;11.18;;
45392;SDS011;31129;44.810;10.334;2023-12-04T11:26:37;22.08;;;12.98;;
45392;SDS011;31129;44.810;10.334;2023-12-04T11:29:05;20.67;;;12.85;;
45392;SDS011;31129;44.810;10.334;2023-12-04T12:37:07;23.15;;;13.98;;
45392;SDS011;31129;44.810;10.334;2023-12-04T12:39:34;22.63;;;13.80;;
45392;SDS011;31129;44.810;10.334;2023-12-04T12:42:00;20.98;;;14.00;;
45392;SDS011;31129;44.810;10.334;2023-12-04T12:44:26;20.67;;;13.65;;
45392;SDS011;31129;44.810;10.334;2023-12-04T12:46:52;22.60;;;14.55;;
45392;SDS011;31129;44.810;10.334;2023-12-04T12:49:18;20.40;;;13.80;;
45392;SDS011;31129;44.810;10.334;2023-12-04T12:51:47;23.55;;;14.50;;
45392;SDS011;31129;44.810;10.334;2023-12-04T12:54:12;21.23;;;13.00;;
45392;SDS011;31129;44.810;10.334;2023-12-04T12:56:38;22.95;;;14.38;;
45392;SDS011;31129;44.810;10.334;2023-12-04T12:59:04;22.10;;;14.18;;
45392;SDS011;31129;44.810;10.334;2023-12-04T13:01:32;21.00;;;13.48;;
45392;SDS011;31129;44.810;10.334;2023-12-04T13:03:58;23.27;;;14.55;;
45392;SDS011;31129;44.810;10.334;2023-12-04T13:06:24;20.92;;;13.80;;
45392;SDS011;31129;44.810;10.334;2023-12-04T13:08:49;23.02;;;14.23;;
45392;SDS011;31129;44.810;10.334;2023-12-04T13:11:15;25.27;;;13.35;;
45392;SDS011;31129;44.810;10.334;2023-12-04T13:13:40;23.20;;;13.50;;
45392;SDS011;31129;44.810;10.334;2023-12-04T13:16:06;20.70;;;13.45;;
45392;SDS011;31129;44.810;10.334;2023-12-04T13:18:31;23.33;;;14.50;;
45392;SDS011;31129;44.810;10.334;2023-12-04T13:23:25;23.33;;;14.57;;
45392;SDS011;31129;44.810;10.334;2023-12-04T13:25:51;25.05;;;14.65;;
45392;SDS011;31129;44.810;10.334;2023-12-04T13:28:16;22.50;;;15.32;;
45392;SDS011;31129;44.810;10.334;2023-12-04T13:30:45;23.63;;;15.43;;
45392;SDS011;31129;44.810;10.334;2023-12-04T13:33:10;22.90;;;14.43;;
45392;SDS011;31129;44.810;10.334;2023-12-04T13:35:35;24.25;;;14.73;;
45392;SDS011;31129;44.810;10.334;2023-12-04T13:38:01;24.40;;;14.77;;
45392;SDS011;31129;44.810;10.334;2023-12-04T13:40:29;22.00;;;14.18;;
45392;SDS011;31129;44.810;10.334;2023-12-04T13:42:57;26.45;;;15.60;;
45392;SDS011;31129;44.810;10.334;2023-12-04T13:45:41;23.08;;;14.93;;
45392;SDS011;31129;44.810;10.334;2023-12-04T13:48:07;27.73;;;15.77;;
45392;SDS011;31129;44.810;10.334;2023-12-04T13:50:32;24.90;;;15.85;;
45392;SDS011;31129;44.810;10.334;2023-12-04T13:52:58;25.15;;;14.82;;
45392;SDS011;31129;44.810;10.334;2023-12-04T13:55:24;24.15;;;15.07;;
45392;SDS011;31129;44.810;10.334;2023-12-04T13:58:21;27.02;;;15.40;;
45392;SDS011;31129;44.810;10.334;2023-12-04T14:01:10;22.73;;;16.00;;
45392;SDS011;31129;44.810;10.334;2023-12-04T14:03:39;21.63;;;14.88;;
45392;SDS011;31129;44.810;10.334;2023-12-04T14:06:05;24.05;;;15.60;;
45392;SDS011;31129;44.810;10.334;2023-12-04T14:08:31;24.42;;;15.40;;
45392;SDS011;31129;44.810;10.334;2023-12-04T14:10:56;25.92;;;16.48;;
45392;SDS011;31129;44.810;10.334;2023-12-04T14:13:22;25.90;;;15.68;;
45392;SDS011;31129;44.810;10.334;2023-12-04T14:15:48;24.17;;;16.33;;
45392;SDS011;31129;44.810;10.334;2023-12-04T14:18:13;29.77;;;17.30;;
45392;SDS011;31129;44.810;10.334;2023-12-04T14:20:39;25.48;;;16.80;;
45392;SDS011;31129;44.810;10.334;2023-12-04T14:23:04;24.30;;;16.20;;
45392;SDS011;31129;44.810;10.334;2023-12-04T14:25:30;25.83;;;17.13;;
45392;SDS011;31129;44.810;10.334;2023-12-04T14:27:55;26.77;;;17.55;;
45392;SDS011;31129;44.810;10.334;2023-12-04T14:30:21;28.40;;;17.55;;
45392;SDS011;31129;44.810;10.334;2023-12-04T14:32:46;31.50;;;18.63;;
45392;SDS011;31129;44.810;10.334;2023-12-04T14:35:11;29.92;;;19.30;;
45392;SDS011;31129;44.810;10.334;2023-12-04T14:37:38;29.23;;;18.45;;
45392;SDS011;31129;44.810;10.334;2023-12-04T14:40:04;25.65;;;17.85;;
45392;SDS011;31129;44.810;10.334;2023-12-04T14:42:30;28.92;;;19.00;;
45392;SDS011;31129;44.810;10.334;2023-12-04T14:44:56;31.70;;;20.27;;
45392;SDS011;31129;44.810;10.334;2023-12-04T14:47:22;36.88;;;19.42;;
45392;SDS011;31129;44.810;10.334;2023-12-04T14:49:47;29.88;;;20.83;;
45392;SDS011;31129;44.810;10.334;2023-12-04T14:52:18;38.03;;;21.55;;
45392;SDS011;31129;44.810;10.334;2023-12-04T14:54:46;31.95;;;21.25;;
45392;SDS011;31129;44.810;10.334;2023-12-04T14:57:30;32.47;;;20.55;;
45392;SDS011;31129;44.810;10.334;2023-12-04T15:00:05;34.78;;;20.88;;
45392;SDS011;31129;44.810;10.334;2023-12-04T15:02:34;32.67;;;20.73;;
45392;SDS011;31129;44.810;10.334;2023-12-04T15:05:32;29.10;;;20.73;;
45392;SDS011;31129;44.810;10.334;2023-12-04T15:08:05;30.02;;;20.33;;
45392;SDS011;31129;44.810;10.334;2023-12-04T15:10:49;31.27;;;19.42;;
45392;SDS011;31129;44.810;10.334;2023-12-04T15:13:23;29.05;;;20.05;;
45392;SDS011;31129;44.810;10.334;2023-12-04T15:15:57;30.15;;;18.73;;
45392;SDS011;31129;44.810;10.334;2023-12-04T15:18:38;29.23;;;18.90;;
45392;SDS011;31129;44.810;10.334;2023-12-04T15:21:04;28.65;;;19.52;;
45392;SDS011;31129;44.810;10.334;2023-12-04T15:23:30;36.03;;;20.02;;
45392;SDS011;31129;44.810;10.334;2023-12-04T15:25:55;30.13;;;19.98;;
45392;SDS011;31129;44.810;10.334;2023-12-04T15:28:21;27.45;;;18.48;;
45392;SDS011;31129;44.810;10.334;2023-12-04T15:30:48;35.88;;;19.80;;
45392;SDS011;31129;44.810;10.334;2023-12-04T15:33:14;30.67;;;19.85;;
45392;SDS011;31129;44.810;10.334;2023-12-04T15:35:43;28.35;;;19.33;;
45392;SDS011;31129;44.810;10.334;2023-12-04T15:38:08;31.23;;;19.73;;
45392;SDS011;31129;44.810;10.334;2023-12-04T15:40:34;35.55;;;20.90;;
45392;SDS011;31129;44.810;10.334;2023-12-04T15:43:00;35.00;;;21.70;;